sensor_id;sensor_type;location;lat;lon;timestamp;pressure;altitude;pressure_sealevel;temperature
68127;BMP180;54931;52.098;21.006;2023-06-10T00:00:45;100202.80;;;18.08
68127;BMP180;54931;52.098;21.006;2023-06-10T00:03:33;100207.00;;;18.00
68127;BMP180;54931;52.098;21.006;2023-06-10T00:06:01;100207.40;;;18.00
68127;BMP180;54931;52.098;21.006;2023-06-10T00:08:28;100210.20;;;18.00
68127;BMP180;54931;52.098;21.006;2023-06-10T00:10:59;100210.40;;;17.98
68127;BMP180;54931;52.098;21.006;2023-06-10T00:13:27;100210.60;;;17.90
68127;BMP180;54931;52.098;21.006;2023-06-10T00:15:55;100207.80;;;17.90
68127;BMP180;54931;52.098;21.006;2023-06-10T00:18:23;100207.60;;;17.90
68127;BMP180;54931;52.098;21.006;2023-06-10T00:20:50;100208.00;;;17.90
68127;BMP180;54931;52.098;21.006;2023-06-10T00:23:21;100204.20;;;17.90
68127;BMP180;54931;52.098;21.006;2023-06-10T00:25:49;100197.80;;;17.80
68127;BMP180;54931;52.098;21.006;2023-06-10T00:28:17;100194.20;;;17.80
68127;BMP180;54931;52.098;21.006;2023-06-10T00:30:45;100199.00;;;17.78
68127;BMP180;54931;52.098;21.006;2023-06-10T00:33:13;100195.60;;;17.70
68127;BMP180;54931;52.098;21.006;2023-06-10T00:35:41;100191.20;;;17.70
68127;BMP180;54931;52.098;21.006;2023-06-10T00:38:09;100192.80;;;17.68
68127;BMP180;54931;52.098;21.006;2023-06-10T00:40:40;100194.40;;;17.60
68127;BMP180;54931;52.098;21.006;2023-06-10T00:43:09;100197.40;;;17.60
68127;BMP180;54931;52.098;21.006;2023-06-10T00:45:37;100199.20;;;17.60
68127;BMP180;54931;52.098;21.006;2023-06-10T00:48:05;100201.20;;;17.60
68127;BMP180;54931;52.098;21.006;2023-06-10T00:50:33;100203.20;;;17.60
68127;BMP180;54931;52.098;21.006;2023-06-10T00:53:02;100201.40;;;17.60
68127;BMP180;54931;52.098;21.006;2023-06-10T00:55:32;100197.80;;;17.60
68127;BMP180;54931;52.098;21.006;2023-06-10T00:58:00;100201.40;;;17.60
68127;BMP180;54931;52.098;21.006;2023-06-10T01:00:28;100201.00;;;17.68
68127;BMP180;54931;52.098;21.006;2023-06-10T01:02:56;100205.00;;;17.70
68127;BMP180;54931;52.098;21.006;2023-06-10T01:05:24;100203.60;;;17.80
68127;BMP180;54931;52.098;21.006;2023-06-10T01:08:19;100201.40;;;17.80
68127;BMP180;54931;52.098;21.006;2023-06-10T01:10:59;100201.40;;;17.84
68127;BMP180;54931;52.098;21.006;2023-06-10T01:13:29;100193.60;;;17.90
68127;BMP180;54931;52.098;21.006;2023-06-10T01:15:57;100196.60;;;17.90
68127;BMP180;54931;52.098;21.006;2023-06-10T01:18:32;100202.60;;;17.90
68127;BMP180;54931;52.098;21.006;2023-06-10T01:20:59;100197.80;;;17.90
68127;BMP180;54931;52.098;21.006;2023-06-10T01:23:27;100201.80;;;17.80
68127;BMP180;54931;52.098;21.006;2023-06-10T01:26:09;100205.00;;;17.80
68127;BMP180;54931;52.098;21.006;2023-06-10T01:28:52;100208.80;;;17.80
68127;BMP180;54931;52.098;21.006;2023-06-10T01:32:10;100209.00;;;17.80
68127;BMP180;54931;52.098;21.006;2023-06-10T01:34:42;100212.60;;;17.70
68127;BMP180;54931;52.098;21.006;2023-06-10T01:37:17;100216.00;;;17.70
68127;BMP180;54931;52.098;21.006;2023-06-10T01:39:48;100216.20;;;17.66
68127;BMP180;54931;52.098;21.006;2023-06-10T01:42:17;100223.20;;;17.68
68127;BMP180;54931;52.098;21.006;2023-06-10T01:44:45;100225.80;;;17.62
68127;BMP180;54931;52.098;21.006;2023-06-10T01:47:13;100223.40;;;17.60
68127;BMP180;54931;52.098;21.006;2023-06-10T01:49:41;100226.00;;;17.60
68127;BMP180;54931;52.098;21.006;2023-06-10T01:52:09;100225.40;;;17.50
68127;BMP180;54931;52.098;21.006;2023-06-10T01:54:37;100231.00;;;17.50
68127;BMP180;54931;52.098;21.006;2023-06-10T01:57:05;100226.40;;;17.46
68127;BMP180;54931;52.098;21.006;2023-06-10T01:59:33;100224.40;;;17.40
68127;BMP180;54931;52.098;21.006;2023-06-10T02:02:01;100227.20;;;17.40
68127;BMP180;54931;52.098;21.006;2023-06-10T02:04:29;100232.40;;;17.30
68127;BMP180;54931;52.098;21.006;2023-06-10T02:06:57;100230.80;;;17.30
68127;BMP180;54931;52.098;21.006;2023-06-10T02:09:25;100233.00;;;17.20
68127;BMP180;54931;52.098;21.006;2023-06-10T02:11:53;100231.20;;;17.16
68127;BMP180;54931;52.098;21.006;2023-06-10T02:14:20;100234.80;;;17.10
68127;BMP180;54931;52.098;21.006;2023-06-10T02:16:48;100233.20;;;17.10
68127;BMP180;54931;52.098;21.006;2023-06-10T02:19:16;100235.40;;;17.04
68127;BMP180;54931;52.098;21.006;2023-06-10T02:21:45;100232.20;;;17.00
68127;BMP180;54931;52.098;21.006;2023-06-10T02:24:13;100231.40;;;17.00
68127;BMP180;54931;52.098;21.006;2023-06-10T02:26:41;100237.20;;;16.90
68127;BMP180;54931;52.098;21.006;2023-06-10T02:29:09;100241.80;;;16.90
68127;BMP180;54931;52.098;21.006;2023-06-10T02:31:37;100242.60;;;16.90
68127;BMP180;54931;52.098;21.006;2023-06-10T02:34:05;100242.80;;;16.86
68127;BMP180;54931;52.098;21.006;2023-06-10T02:36:33;100249.60;;;16.88
68127;BMP180;54931;52.098;21.006;2023-06-10T02:39:03;100249.40;;;16.82
68127;BMP180;54931;52.098;21.006;2023-06-10T02:41:31;100251.00;;;16.80
68127;BMP180;54931;52.098;21.006;2023-06-10T02:43:59;100248.00;;;16.80
68127;BMP180;54931;52.098;21.006;2023-06-10T02:46:27;100253.60;;;16.80
68127;BMP180;54931;52.098;21.006;2023-06-10T02:48:56;100256.00;;;16.80
68127;BMP180;54931;52.098;21.006;2023-06-10T02:51:23;100262.60;;;16.80
68127;BMP180;54931;52.098;21.006;2023-06-10T02:53:51;100263.60;;;16.84
68127;BMP180;54931;52.098;21.006;2023-06-10T02:56:19;100264.20;;;16.90
68127;BMP180;54931;52.098;21.006;2023-06-10T02:58:48;100265.00;;;16.90
68127;BMP180;54931;52.098;21.006;2023-06-10T03:01:16;100264.40;;;16.90
68127;BMP180;54931;52.098;21.006;2023-06-10T03:03:45;100266.60;;;16.90
68127;BMP180;54931;52.098;21.006;2023-06-10T03:06:14;100267.80;;;16.90
68127;BMP180;54931;52.098;21.006;2023-06-10T03:08:42;100262.60;;;16.90
68127;BMP180;54931;52.098;21.006;2023-06-10T03:11:09;100274.60;;;16.90
68127;BMP180;54931;52.098;21.006;2023-06-10T03:13:38;100276.40;;;16.90
68127;BMP180;54931;52.098;21.006;2023-06-10T03:16:07;100279.20;;;16.92
68127;BMP180;54931;52.098;21.006;2023-06-10T03:18:35;100280.40;;;17.00
68127;BMP180;54931;52.098;21.006;2023-06-10T03:21:02;100281.60;;;17.00
68127;BMP180;54931;52.098;21.006;2023-06-10T03:23:30;100286.20;;;17.10
68127;BMP180;54931;52.098;21.006;2023-06-10T03:25:58;100288.00;;;17.18
68127;BMP180;54931;52.098;21.006;2023-06-10T03:28:26;100294.20;;;17.30
68127;BMP180;54931;52.098;21.006;2023-06-10T03:30:54;100291.60;;;17.42
68127;BMP180;54931;52.098;21.006;2023-06-10T03:33:22;100296.80;;;17.60
68127;BMP180;54931;52.098;21.006;2023-06-10T03:35:51;100298.00;;;17.70
68127;BMP180;54931;52.098;21.006;2023-06-10T03:38:19;100298.60;;;17.82
68127;BMP180;54931;52.098;21.006;2023-06-10T03:40:48;100303.40;;;18.00
68127;BMP180;54931;52.098;21.006;2023-06-10T03:43:16;100299.80;;;18.06
68127;BMP180;54931;52.098;21.006;2023-06-10T03:45:45;100303.40;;;18.10
68127;BMP180;54931;52.098;21.006;2023-06-10T03:48:14;100306.40;;;18.20
68127;BMP180;54931;52.098;21.006;2023-06-10T03:50:43;100306.20;;;18.20
68127;BMP180;54931;52.098;21.006;2023-06-10T03:53:10;100309.60;;;18.20
68127;BMP180;54931;52.098;21.006;2023-06-10T03:55:39;100306.40;;;18.10
68127;BMP180;54931;52.098;21.006;2023-06-10T03:58:07;100306.40;;;18.00
68127;BMP180;54931;52.098;21.006;2023-06-10T04:00:34;100307.80;;;18.00
68127;BMP180;54931;52.098;21.006;2023-06-10T04:03:09;100309.80;;;17.90
68127;BMP180;54931;52.098;21.006;2023-06-10T04:05:42;100305.40;;;17.90
68127;BMP180;54931;52.098;21.006;2023-06-10T04:08:09;100308.60;;;17.90
68127;BMP180;54931;52.098;21.006;2023-06-10T04:10:37;100312.80;;;17.90
68127;BMP180;54931;52.098;21.006;2023-06-10T04:13:05;100314.60;;;17.90
68127;BMP180;54931;52.098;21.006;2023-06-10T04:15:32;100311.20;;;18.00
68127;BMP180;54931;52.098;21.006;2023-06-10T04:18:01;100312.20;;;18.20
68127;BMP180;54931;52.098;21.006;2023-06-10T04:20:29;100304.20;;;18.40
68127;BMP180;54931;52.098;21.006;2023-06-10T04:22:56;100303.40;;;18.58
68127;BMP180;54931;52.098;21.006;2023-06-10T04:25:25;100303.80;;;18.80
68127;BMP180;54931;52.098;21.006;2023-06-10T04:27:54;100306.60;;;19.00
68127;BMP180;54931;52.098;21.006;2023-06-10T04:30:22;100312.80;;;19.20
68127;BMP180;54931;52.098;21.006;2023-06-10T04:32:50;100311.40;;;19.36
68127;BMP180;54931;52.098;21.006;2023-06-10T04:35:18;100312.40;;;19.40
68127;BMP180;54931;52.098;21.006;2023-06-10T04:37:46;100312.00;;;19.48
68127;BMP180;54931;52.098;21.006;2023-06-10T04:40:14;100310.80;;;19.52
68127;BMP180;54931;52.098;21.006;2023-06-10T04:42:43;100313.40;;;19.70
68127;BMP180;54931;52.098;21.006;2023-06-10T04:45:11;100315.80;;;19.90
68127;BMP180;54931;52.098;21.006;2023-06-10T04:47:39;100319.20;;;20.14
68127;BMP180;54931;52.098;21.006;2023-06-10T04:50:07;100324.60;;;20.30
68127;BMP180;54931;52.098;21.006;2023-06-10T04:52:35;100320.00;;;20.58
68127;BMP180;54931;52.098;21.006;2023-06-10T04:55:03;100330.20;;;20.80
68127;BMP180;54931;52.098;21.006;2023-06-10T04:57:31;100332.20;;;21.00
68127;BMP180;54931;52.098;21.006;2023-06-10T04:59:59;100329.80;;;21.20
68127;BMP180;54931;52.098;21.006;2023-06-10T05:02:27;100333.80;;;21.40
68127;BMP180;54931;52.098;21.006;2023-06-10T05:04:54;100336.60;;;21.40
68127;BMP180;54931;52.098;21.006;2023-06-10T05:07:24;100336.60;;;21.30
68127;BMP180;54931;52.098;21.006;2023-06-10T05:09:51;100337.40;;;21.40
68127;BMP180;54931;52.098;21.006;2023-06-10T05:12:19;100336.60;;;21.40
68127;BMP180;54931;52.098;21.006;2023-06-10T05:14:47;100340.60;;;21.40
68127;BMP180;54931;52.098;21.006;2023-06-10T05:17:15;100337.80;;;21.50
68127;BMP180;54931;52.098;21.006;2023-06-10T05:19:43;100342.00;;;21.62
68127;BMP180;54931;52.098;21.006;2023-06-10T05:22:11;100342.00;;;21.62
68127;BMP180;54931;52.098;21.006;2023-06-10T05:24:41;100341.20;;;21.76
68127;BMP180;54931;52.098;21.006;2023-06-10T05:27:08;100347.20;;;21.84
68127;BMP180;54931;52.098;21.006;2023-06-10T05:29:38;100347.60;;;22.10
68127;BMP180;54931;52.098;21.006;2023-06-10T05:32:06;100346.40;;;22.30
68127;BMP180;54931;52.098;21.006;2023-06-10T05:34:34;100352.00;;;22.40
68127;BMP180;54931;52.098;21.006;2023-06-10T05:37:02;100351.80;;;22.62
68127;BMP180;54931;52.098;21.006;2023-06-10T05:39:31;100357.60;;;23.00
68127;BMP180;54931;52.098;21.006;2023-06-10T05:41:58;100354.00;;;23.26
68127;BMP180;54931;52.098;21.006;2023-06-10T05:44:26;100354.80;;;23.30
68127;BMP180;54931;52.098;21.006;2023-06-10T05:46:55;100356.20;;;23.40
68127;BMP180;54931;52.098;21.006;2023-06-10T05:49:22;100351.80;;;23.42
68127;BMP180;54931;52.098;21.006;2023-06-10T05:51:50;100357.40;;;23.60
68127;BMP180;54931;52.098;21.006;2023-06-10T05:54:19;100357.20;;;23.76
68127;BMP180;54931;52.098;21.006;2023-06-10T05:56:47;100354.40;;;24.00
68127;BMP180;54931;52.098;21.006;2023-06-10T05:59:15;100352.00;;;24.20
68127;BMP180;54931;52.098;21.006;2023-06-10T06:01:43;100350.80;;;24.22
68127;BMP180;54931;52.098;21.006;2023-06-10T06:04:11;100349.20;;;24.20
68127;BMP180;54931;52.098;21.006;2023-06-10T06:06:39;100348.40;;;24.10
68127;BMP180;54931;52.098;21.006;2023-06-10T06:09:08;100349.60;;;24.20
68127;BMP180;54931;52.098;21.006;2023-06-10T06:11:35;100350.60;;;24.38
68127;BMP180;54931;52.098;21.006;2023-06-10T06:14:04;100351.60;;;24.54
68127;BMP180;54931;52.098;21.006;2023-06-10T06:16:32;100349.40;;;24.60
68127;BMP180;54931;52.098;21.006;2023-06-10T06:19:00;100351.20;;;24.70
68127;BMP180;54931;52.098;21.006;2023-06-10T06:21:28;100350.00;;;24.70
68127;BMP180;54931;52.098;21.006;2023-06-10T06:23:56;100351.80;;;24.70
68127;BMP180;54931;52.098;21.006;2023-06-10T06:26:25;100349.60;;;24.70
68127;BMP180;54931;52.098;21.006;2023-06-10T06:28:53;100351.80;;;24.60
68127;BMP180;54931;52.098;21.006;2023-06-10T06:31:20;100356.20;;;24.68
68127;BMP180;54931;52.098;21.006;2023-06-10T06:33:48;100356.00;;;24.60
68127;BMP180;54931;52.098;21.006;2023-06-10T06:36:16;100352.40;;;24.50
68127;BMP180;54931;52.098;21.006;2023-06-10T06:38:44;100359.00;;;24.50
68127;BMP180;54931;52.098;21.006;2023-06-10T06:41:11;100359.80;;;24.50
68127;BMP180;54931;52.098;21.006;2023-06-10T06:43:39;100359.40;;;24.50
68127;BMP180;54931;52.098;21.006;2023-06-10T06:46:07;100356.80;;;24.50
68127;BMP180;54931;52.098;21.006;2023-06-10T06:48:35;100358.40;;;24.60
68127;BMP180;54931;52.098;21.006;2023-06-10T06:51:03;100359.80;;;24.80
68127;BMP180;54931;52.098;21.006;2023-06-10T06:53:31;100361.20;;;24.96
68127;BMP180;54931;52.098;21.006;2023-06-10T06:55:58;100370.60;;;25.06
68127;BMP180;54931;52.098;21.006;2023-06-10T06:58:26;100373.20;;;25.14
68127;BMP180;54931;52.098;21.006;2023-06-10T07:00:55;100370.00;;;25.48
68127;BMP180;54931;52.098;21.006;2023-06-10T07:03:23;100374.20;;;25.70
68127;BMP180;54931;52.098;21.006;2023-06-10T07:05:51;100376.80;;;25.90
68127;BMP180;54931;52.098;21.006;2023-06-10T07:08:19;100376.80;;;26.10
68127;BMP180;54931;52.098;21.006;2023-06-10T07:10:46;100380.40;;;26.10
68127;BMP180;54931;52.098;21.006;2023-06-10T07:13:15;100376.40;;;26.30
68127;BMP180;54931;52.098;21.006;2023-06-10T07:15:43;100377.00;;;26.30
68127;BMP180;54931;52.098;21.006;2023-06-10T07:18:10;100374.00;;;26.40
68127;BMP180;54931;52.098;21.006;2023-06-10T07:20:38;100375.20;;;26.40
68127;BMP180;54931;52.098;21.006;2023-06-10T07:23:06;100379.00;;;26.40
68127;BMP180;54931;52.098;21.006;2023-06-10T07:25:34;100371.80;;;26.40
68127;BMP180;54931;52.098;21.006;2023-06-10T07:28:02;100374.60;;;26.50
68127;BMP180;54931;52.098;21.006;2023-06-10T07:30:30;100382.20;;;26.70
68127;BMP180;54931;52.098;21.006;2023-06-10T07:32:58;100389.40;;;26.80
68127;BMP180;54931;52.098;21.006;2023-06-10T07:35:26;100390.20;;;26.70
68127;BMP180;54931;52.098;21.006;2023-06-10T07:37:54;100389.00;;;26.84
68127;BMP180;54931;52.098;21.006;2023-06-10T07:40:21;100386.60;;;27.16
68127;BMP180;54931;52.098;21.006;2023-06-10T07:42:50;100389.60;;;27.20
68127;BMP180;54931;52.098;21.006;2023-06-10T07:45:18;100387.00;;;27.20
68127;BMP180;54931;52.098;21.006;2023-06-10T07:47:46;100391.40;;;27.00
68127;BMP180;54931;52.098;21.006;2023-06-10T07:50:14;100391.40;;;26.80
68127;BMP180;54931;52.098;21.006;2023-06-10T07:52:42;100389.60;;;26.80
68127;BMP180;54931;52.098;21.006;2023-06-10T07:55:09;100392.40;;;26.70
68127;BMP180;54931;52.098;21.006;2023-06-10T07:57:37;100391.40;;;26.74
68127;BMP180;54931;52.098;21.006;2023-06-10T08:00:07;100394.00;;;26.80
68127;BMP180;54931;52.098;21.006;2023-06-10T08:02:36;100393.20;;;26.80
68127;BMP180;54931;52.098;21.006;2023-06-10T08:05:05;100395.80;;;26.80
68127;BMP180;54931;52.098;21.006;2023-06-10T08:07:33;100397.40;;;26.80
68127;BMP180;54931;52.098;21.006;2023-06-10T08:10:03;100398.20;;;26.90
68127;BMP180;54931;52.098;21.006;2023-06-10T08:12:35;100398.00;;;27.00
68127;BMP180;54931;52.098;21.006;2023-06-10T08:15:04;100396.40;;;27.20
68127;BMP180;54931;52.098;21.006;2023-06-10T08:17:32;100396.60;;;27.26
68127;BMP180;54931;52.098;21.006;2023-06-10T08:20:01;100397.60;;;27.40
68127;BMP180;54931;52.098;21.006;2023-06-10T08:22:29;100396.00;;;27.50
68127;BMP180;54931;52.098;21.006;2023-06-10T08:24:57;100398.20;;;27.60
68127;BMP180;54931;52.098;21.006;2023-06-10T08:27:25;100403.20;;;27.70
68127;BMP180;54931;52.098;21.006;2023-06-10T08:29:53;100403.40;;;27.60
68127;BMP180;54931;52.098;21.006;2023-06-10T08:32:21;100397.80;;;27.60
68127;BMP180;54931;52.098;21.006;2023-06-10T08:34:49;100398.40;;;27.60
68127;BMP180;54931;52.098;21.006;2023-06-10T08:37:17;100402.80;;;27.80
68127;BMP180;54931;52.098;21.006;2023-06-10T08:39:45;100404.00;;;27.90
68127;BMP180;54931;52.098;21.006;2023-06-10T08:42:43;100404.00;;;28.00
68127;BMP180;54931;52.098;21.006;2023-06-10T08:45:17;100394.20;;;27.92
68127;BMP180;54931;52.098;21.006;2023-06-10T08:47:50;100400.60;;;27.90
68127;BMP180;54931;52.098;21.006;2023-06-10T08:50:22;100394.80;;;28.10
68127;BMP180;54931;52.098;21.006;2023-06-10T08:52:58;100399.00;;;28.20
68127;BMP180;54931;52.098;21.006;2023-06-10T08:55:31;100398.40;;;28.10
68127;BMP180;54931;52.098;21.006;2023-06-10T08:58:01;100400.20;;;28.10
68127;BMP180;54931;52.098;21.006;2023-06-10T09:00:30;100409.80;;;28.28
68127;BMP180;54931;52.098;21.006;2023-06-10T09:02:59;100407.40;;;28.34
68127;BMP180;54931;52.098;21.006;2023-06-10T09:05:30;100415.80;;;28.38
68127;BMP180;54931;52.098;21.006;2023-06-10T09:08:01;100412.60;;;28.30
68127;BMP180;54931;52.098;21.006;2023-06-10T09:10:29;100409.60;;;28.20
68127;BMP180;54931;52.098;21.006;2023-06-10T09:12:57;100410.40;;;28.24
68127;BMP180;54931;52.098;21.006;2023-06-10T09:15:25;100407.80;;;28.28
68127;BMP180;54931;52.098;21.006;2023-06-10T09:17:53;100407.80;;;28.10
68127;BMP180;54931;52.098;21.006;2023-06-10T09:20:21;100407.80;;;28.00
68127;BMP180;54931;52.098;21.006;2023-06-10T09:22:49;100405.20;;;27.90
68127;BMP180;54931;52.098;21.006;2023-06-10T09:25:17;100414.20;;;27.74
68127;BMP180;54931;52.098;21.006;2023-06-10T09:27:52;100412.80;;;27.60
68127;BMP180;54931;52.098;21.006;2023-06-10T09:30:30;100420.00;;;27.50
68127;BMP180;54931;52.098;21.006;2023-06-10T09:33:02;100421.60;;;27.70
68127;BMP180;54931;52.098;21.006;2023-06-10T09:35:31;100421.60;;;27.90
68127;BMP180;54931;52.098;21.006;2023-06-10T09:38:00;100427.40;;;28.08
68127;BMP180;54931;52.098;21.006;2023-06-10T09:40:30;100423.20;;;28.20
68127;BMP180;54931;52.098;21.006;2023-06-10T09:42:59;100426.00;;;28.14
68127;BMP180;54931;52.098;21.006;2023-06-10T09:45:31;100430.80;;;28.20
68127;BMP180;54931;52.098;21.006;2023-06-10T09:48:01;100429.40;;;28.20
68127;BMP180;54931;52.098;21.006;2023-06-10T09:50:33;100429.00;;;28.30
68127;BMP180;54931;52.098;21.006;2023-06-10T09:53:01;100425.40;;;28.22
68127;BMP180;54931;52.098;21.006;2023-06-10T09:55:33;100422.60;;;28.20
68127;BMP180;54931;52.098;21.006;2023-06-10T09:58:04;100424.40;;;28.24
68127;BMP180;54931;52.098;21.006;2023-06-10T10:00:36;100422.00;;;28.40
68127;BMP180;54931;52.098;21.006;2023-06-10T10:03:04;100423.00;;;28.30
68127;BMP180;54931;52.098;21.006;2023-06-10T10:05:34;100427.20;;;28.20
68127;BMP180;54931;52.098;21.006;2023-06-10T10:08:02;100420.40;;;28.20
68127;BMP180;54931;52.098;21.006;2023-06-10T10:10:30;100421.00;;;28.20
68127;BMP180;54931;52.098;21.006;2023-06-10T10:12:57;100418.40;;;28.20
68127;BMP180;54931;52.098;21.006;2023-06-10T10:15:32;100417.60;;;28.30
68127;BMP180;54931;52.098;21.006;2023-06-10T10:18:09;100419.20;;;28.22
68127;BMP180;54931;52.098;21.006;2023-06-10T10:20:46;100420.60;;;28.20
68127;BMP180;54931;52.098;21.006;2023-06-10T10:23:26;100424.80;;;28.02
68127;BMP180;54931;52.098;21.006;2023-06-10T10:26:00;100415.00;;;28.00
68127;BMP180;54931;52.098;21.006;2023-06-10T10:28:45;100424.00;;;28.00
68127;BMP180;54931;52.098;21.006;2023-06-10T10:31:19;100417.20;;;27.98
68127;BMP180;54931;52.098;21.006;2023-06-10T10:34:06;100420.60;;;27.88
68127;BMP180;54931;52.098;21.006;2023-06-10T10:36:35;100419.20;;;27.90
68127;BMP180;54931;52.098;21.006;2023-06-10T10:39:05;100419.20;;;27.80
68127;BMP180;54931;52.098;21.006;2023-06-10T10:41:34;100424.80;;;27.80
68127;BMP180;54931;52.098;21.006;2023-06-10T10:44:06;100417.60;;;27.80
68127;BMP180;54931;52.098;21.006;2023-06-10T10:46:51;100417.40;;;27.80
68127;BMP180;54931;52.098;21.006;2023-06-10T10:49:20;100416.80;;;27.84
68127;BMP180;54931;52.098;21.006;2023-06-10T10:52:01;100412.60;;;27.70
68127;BMP180;54931;52.098;21.006;2023-06-10T10:57:19;100417.40;;;27.60
68127;BMP180;54931;52.098;21.006;2023-06-10T10:59:59;100423.40;;;27.50
68127;BMP180;54931;52.098;21.006;2023-06-10T11:02:36;100419.60;;;27.40
68127;BMP180;54931;52.098;21.006;2023-06-10T11:05:08;100418.40;;;27.20
68127;BMP180;54931;52.098;21.006;2023-06-10T11:07:36;100417.40;;;27.10
68127;BMP180;54931;52.098;21.006;2023-06-10T11:10:12;100413.40;;;27.10
68127;BMP180;54931;52.098;21.006;2023-06-10T11:12:42;100407.00;;;27.10
68127;BMP180;54931;52.098;21.006;2023-06-10T11:15:10;100412.00;;;27.10
68127;BMP180;54931;52.098;21.006;2023-06-10T11:31:21;100409.80;;;26.70
68127;BMP180;54931;52.098;21.006;2023-06-10T11:34:01;100413.80;;;26.50
68127;BMP180;54931;52.098;21.006;2023-06-10T11:36:32;100416.00;;;26.30
68127;BMP180;54931;52.098;21.006;2023-06-10T11:39:03;100414.20;;;26.30
68127;BMP180;54931;52.098;21.006;2023-06-10T11:41:33;100414.80;;;26.40
68127;BMP180;54931;52.098;21.006;2023-06-10T11:44:06;100409.60;;;26.50
68127;BMP180;54931;52.098;21.006;2023-06-10T11:46:35;100406.00;;;26.50
68127;BMP180;54931;52.098;21.006;2023-06-10T11:49:05;100408.40;;;26.60
68127;BMP180;54931;52.098;21.006;2023-06-10T11:51:38;100404.20;;;26.74
68127;BMP180;54931;52.098;21.006;2023-06-10T11:54:10;100409.20;;;26.90
68127;BMP180;54931;52.098;21.006;2023-06-10T11:56:38;100404.20;;;26.80
68127;BMP180;54931;52.098;21.006;2023-06-10T11:59:07;100402.40;;;26.70
68127;BMP180;54931;52.098;21.006;2023-06-10T12:01:38;100407.40;;;26.50
68127;BMP180;54931;52.098;21.006;2023-06-10T12:04:15;100398.80;;;26.42
68127;BMP180;54931;52.098;21.006;2023-06-10T12:06:49;100404.60;;;26.32
68127;BMP180;54931;52.098;21.006;2023-06-10T12:09:21;100408.80;;;26.20
68127;BMP180;54931;52.098;21.006;2023-06-10T12:12:01;100403.00;;;26.20
68127;BMP180;54931;52.098;21.006;2023-06-10T12:14:58;100402.20;;;26.30
68127;BMP180;54931;52.098;21.006;2023-06-10T12:20:06;100391.00;;;26.60
68127;BMP180;54931;52.098;21.006;2023-06-10T12:22:43;100391.60;;;26.74
68127;BMP180;54931;52.098;21.006;2023-06-10T12:25:12;100394.80;;;27.04
68127;BMP180;54931;52.098;21.006;2023-06-10T12:27:50;100395.60;;;27.20
68127;BMP180;54931;52.098;21.006;2023-06-10T12:30:23;100397.40;;;27.20
68127;BMP180;54931;52.098;21.006;2023-06-10T12:32:52;100390.80;;;27.10
68127;BMP180;54931;52.098;21.006;2023-06-10T12:35:24;100389.20;;;27.20
68127;BMP180;54931;52.098;21.006;2023-06-10T12:38:05;100378.40;;;27.32
68127;BMP180;54931;52.098;21.006;2023-06-10T12:40:39;100378.20;;;27.40
68127;BMP180;54931;52.098;21.006;2023-06-10T12:43:08;100379.20;;;27.24
68127;BMP180;54931;52.098;21.006;2023-06-10T12:45:39;100384.40;;;26.74
68127;BMP180;54931;52.098;21.006;2023-06-10T12:48:19;100374.40;;;26.42
68127;BMP180;54931;52.098;21.006;2023-06-10T12:50:56;100372.60;;;26.50
68127;BMP180;54931;52.098;21.006;2023-06-10T12:53:25;100375.60;;;26.30
68127;BMP180;54931;52.098;21.006;2023-06-10T12:55:56;100375.80;;;26.04
68127;BMP180;54931;52.098;21.006;2023-06-10T12:58:27;100377.80;;;25.80
68127;BMP180;54931;52.098;21.006;2023-06-10T13:00:54;100373.20;;;25.70
68127;BMP180;54931;52.098;21.006;2023-06-10T13:03:24;100374.40;;;25.88
68127;BMP180;54931;52.098;21.006;2023-06-10T13:05:52;100373.40;;;26.10
68127;BMP180;54931;52.098;21.006;2023-06-10T13:08:20;100367.80;;;26.26
68127;BMP180;54931;52.098;21.006;2023-06-10T13:10:48;100362.60;;;26.30
68127;BMP180;54931;52.098;21.006;2023-06-10T13:13:16;100355.20;;;26.38
68127;BMP180;54931;52.098;21.006;2023-06-10T13:15:45;100359.60;;;26.46
68127;BMP180;54931;52.098;21.006;2023-06-10T13:18:13;100354.60;;;26.50
68127;BMP180;54931;52.098;21.006;2023-06-10T13:20:41;100361.20;;;26.30
68127;BMP180;54931;52.098;21.006;2023-06-10T13:23:10;100363.40;;;26.20
68127;BMP180;54931;52.098;21.006;2023-06-10T13:25:38;100359.40;;;26.20
68127;BMP180;54931;52.098;21.006;2023-06-10T13:28:08;100357.20;;;26.30
68127;BMP180;54931;52.098;21.006;2023-06-10T13:30:36;100352.00;;;26.26
68127;BMP180;54931;52.098;21.006;2023-06-10T13:33:04;100358.20;;;26.40
68127;BMP180;54931;52.098;21.006;2023-06-10T13:35:32;100353.00;;;26.62
68127;BMP180;54931;52.098;21.006;2023-06-10T13:38:00;100354.20;;;26.70
68127;BMP180;54931;52.098;21.006;2023-06-10T13:40:28;100345.80;;;26.78
68127;BMP180;54931;52.098;21.006;2023-06-10T13:42:56;100347.40;;;26.88
68127;BMP180;54931;52.098;21.006;2023-06-10T13:45:24;100354.00;;;26.64
68127;BMP180;54931;52.098;21.006;2023-06-10T13:47:52;100354.20;;;26.40
68127;BMP180;54931;52.098;21.006;2023-06-10T13:50:21;100365.20;;;26.10
68127;BMP180;54931;52.098;21.006;2023-06-10T13:52:48;100361.80;;;25.80
68127;BMP180;54931;52.098;21.006;2023-06-10T13:55:16;100358.00;;;25.46
68127;BMP180;54931;52.098;21.006;2023-06-10T13:57:46;100355.20;;;25.30
68127;BMP180;54931;52.098;21.006;2023-06-10T14:00:14;100358.80;;;25.20
68127;BMP180;54931;52.098;21.006;2023-06-10T14:02:42;100351.40;;;25.20
68127;BMP180;54931;52.098;21.006;2023-06-10T14:05:10;100354.80;;;25.40
68127;BMP180;54931;52.098;21.006;2023-06-10T14:07:38;100357.60;;;25.60
68127;BMP180;54931;52.098;21.006;2023-06-10T14:10:08;100349.20;;;25.80
68127;BMP180;54931;52.098;21.006;2023-06-10T14:12:37;100353.20;;;25.98
68127;BMP180;54931;52.098;21.006;2023-06-10T14:15:06;100353.80;;;26.18
68127;BMP180;54931;52.098;21.006;2023-06-10T14:17:34;100340.20;;;26.38